»·PEaware :: SWA5471 KLAS-KABQ

SWA5471 :: KLAS-KABQ

FLIGHT INFORMATION

Flight Status: Arrived
Operator:
Southwest Airlines
More flights by this operator :: More flights under this callsign
Pilot: Andrew M. (139)
Aircraft: BOEING 737-800
(B738)
More flights by this aircraft type
Origin: KLAS McCarran Intl
United States
Destination: KABQ Albuquerque Intl Sunport
United States
More flights between these airports :: More routes between these airports
Route: COWBY8 GUP CURLY3
File this flight plan on PilotEdge
Remarks: PBN / A1B1C1D1S1S2 NAV / RNVD1E2A1 REG / N608BT EET / KZAB0022 RMK / SIMBRIEF
Altitude:
(Current/Filed)
35,000ft
Speed:
(Current/Filed)
444kts
Departed: 18-Jan-19 06:23 PM
Arrived: 18-Jan-19 07:28 PM
Distance/Time
Traveled:
421nm/1:05
Distance/Time
To Go:
Arrived

Flight Plot

Page will automatically refresh every two minutes.

Flight plan parsing failed; only flown route is shown


Map Options




Map Legend


Flown Route
Filed Route
Departure Airport
Arrival Airport
Navaid (VOR, NDB)
Fix

Horizontal Profiles

Position Reports

Time Latitude Longitude Heading Altitude Ground
Speed
18-Jan-19 17:51 36.079788 -115.145848 335 2093ft 0kts
18-Jan-19 17:52 36.079788 -115.145848 335 2093ft 0kts
18-Jan-19 17:53 36.079788 -115.145848 335 2093ft 0kts
18-Jan-19 17:54 36.079788 -115.145848 335 2093ft 0kts
18-Jan-19 17:55 36.079788 -115.145848 335 2093ft 0kts
18-Jan-19 17:56 36.079788 -115.145848 335 2093ft 0kts
18-Jan-19 17:57 36.079788 -115.145848 335 2093ft 0kts
18-Jan-19 17:58 36.079788 -115.145848 335 2093ft 0kts
18-Jan-19 17:59 36.079788 -115.145848 335 2093ft 0kts
18-Jan-19 18:00 36.079788 -115.145848 335 2093ft 0kts
18-Jan-19 18:01 36.079788 -115.145848 335 2093ft 0kts
18-Jan-19 18:02 36.079788 -115.145848 335 2093ft 0kts
18-Jan-19 18:03 36.079788 -115.145848 335 2093ft 0kts
18-Jan-19 18:04 36.079788 -115.145848 335 2093ft 0kts
18-Jan-19 18:05 36.079788 -115.145848 335 2093ft 0kts
18-Jan-19 18:06 36.079788 -115.145848 335 2093ft 0kts
18-Jan-19 18:07 36.079756 -115.145831 335 2093ft 2kts
18-Jan-19 18:08 36.079214 -115.145526 335 2093ft 2kts
18-Jan-19 18:09 36.078643 -115.145435 33 2095ft 2kts
18-Jan-19 18:10 36.078461 -115.145970 98 2097ft 1kts
18-Jan-19 18:11 36.078462 -115.145978 98 2097ft 0kts
18-Jan-19 18:12 36.078462 -115.145978 98 2097ft 0kts
18-Jan-19 18:13 36.078300 -115.143946 93 2090ft 12kts
18-Jan-19 18:14 36.078281 -115.138946 90 2076ft 13kts
18-Jan-19 18:15 36.078278 -115.133540 90 2059ft 17kts
18-Jan-19 18:16 36.078279 -115.127973 90 2044ft 15kts
18-Jan-19 18:17 36.078253 -115.122956 98 2035ft 11kts
18-Jan-19 18:18 36.077522 -115.121554 136 2036ft 0kts
18-Jan-19 18:19 36.077522 -115.121554 136 2036ft 0kts
18-Jan-19 18:20 36.076745 -115.121243 187 2037ft 4kts
18-Jan-19 18:21 36.076437 -115.122401 269 2038ft 29kts
18-Jan-19 18:22 36.076425 -115.166621 269 2808ft 173kts
18-Jan-19 18:23 36.068976 -115.232919 241 4354ft 231kts
18-Jan-19 18:24 36.010918 -115.283835 202 6393ft 280kts
18-Jan-19 18:25 35.931836 -115.289977 161 8860ft 298kts
18-Jan-19 18:26 35.863537 -115.231123 118 10450ft 340kts
18-Jan-19 18:27 35.831641 -115.117562 102 12844ft 363kts
18-Jan-19 18:28 35.827878 -114.994747 76 15650ft 368kts
18-Jan-19 18:29 35.839880 -114.866037 76 18357ft 388kts
18-Jan-19 18:30 35.852135 -114.731405 75 20962ft 403kts
18-Jan-19 18:31 35.861359 -114.590951 86 23335ft 426kts
18-Jan-19 18:32 35.848754 -114.442398 89 25412ft 444kts
18-Jan-19 18:33 35.834912 -114.288431 89 27265ft 461kts
18-Jan-19 18:34 35.820438 -114.129139 89 28975ft 475kts
18-Jan-19 18:35 35.805227 -113.964728 89 30562ft 489kts
18-Jan-19 18:36 35.789434 -113.797487 89 32338ft 493kts
18-Jan-19 18:37 35.773321 -113.630002 89 34096ft 491kts
18-Jan-19 18:38 35.757068 -113.463418 89 35330ft 497kts
18-Jan-19 18:39 35.740242 -113.293292 89 35332ft 504kts
18-Jan-19 18:40 35.723054 -113.121420 89 35333ft 508kts
18-Jan-19 18:41 35.705595 -112.949842 89 35333ft 506kts
18-Jan-19 18:42 35.687980 -112.779273 89 35329ft 507kts
18-Jan-19 18:43 35.670199 -112.609690 89 35331ft 508kts
18-Jan-19 18:44 35.651829 -112.436930 89 35333ft 509kts
18-Jan-19 18:45 35.633328 -112.264576 89 35323ft 510kts
18-Jan-19 18:46 35.614619 -112.091762 89 35325ft 510kts
18-Jan-19 18:48 35.595662 -111.919571 89 35323ft 511kts
18-Jan-19 18:49 35.588327 -111.747676 82 35321ft 502kts
18-Jan-19 18:50 35.583643 -111.576166 82 35323ft 502kts
18-Jan-19 18:51 35.578630 -111.404479 82 35326ft 503kts
18-Jan-19 18:52 35.573407 -111.232991 83 35315ft 504kts
18-Jan-19 18:53 35.567906 -111.060472 82 35311ft 503kts
18-Jan-19 18:54 35.562143 -110.888503 82 35296ft 505kts
18-Jan-19 18:55 35.556104 -110.716634 82 35295ft 505kts
18-Jan-19 18:56 35.549773 -110.544310 82 35298ft 504kts
18-Jan-19 18:57 35.543196 -110.371983 82 35299ft 505kts
18-Jan-19 18:58 35.536433 -110.199175 82 35288ft 507kts
18-Jan-19 18:59 35.529425 -110.026517 82 35278ft 507kts
18-Jan-19 19:00 35.522102 -109.853128 82 35265ft 506kts
18-Jan-19 19:01 35.514554 -109.681017 82 35269ft 506kts
18-Jan-19 19:02 35.506707 -109.508173 82 35273ft 506kts
18-Jan-19 19:03 35.498623 -109.335853 83 35270ft 509kts
18-Jan-19 19:04 35.490333 -109.162025 83 35266ft 510kts
18-Jan-19 19:05 35.481765 -108.988306 83 35272ft 510kts
18-Jan-19 19:06 35.473780 -108.814257 81 35275ft 508kts
18-Jan-19 19:07 35.469372 -108.641323 80 35047ft 509kts
18-Jan-19 19:07 35.465363 -108.499126 79 33839ft 487kts
18-Jan-19 19:09 35.459927 -108.311285 78 31955ft 482kts
18-Jan-19 19:10 35.455003 -108.147551 77 30238ft 473kts
18-Jan-19 19:11 35.449928 -107.988874 78 28498ft 462kts
18-Jan-19 19:12 35.444799 -107.831927 79 26227ft 461kts
18-Jan-19 19:13 35.439442 -107.674544 80 24252ft 464kts
18-Jan-19 19:13 35.434747 -107.541929 81 24185ft 466kts
18-Jan-19 19:15 35.427912 -107.360715 83 21304ft 448kts
18-Jan-19 19:15 35.423194 -107.240367 85 19064ft 413kts
18-Jan-19 19:16 35.398112 -107.103838 119 16455ft 424kts
18-Jan-19 19:17 35.310707 -107.012475 149 14280ft 410kts
18-Jan-19 19:18 35.215178 -106.942019 149 12229ft 391kts
18-Jan-19 19:19 35.125993 -106.871667 132 10247ft 374kts
18-Jan-19 19:20 35.100022 -106.764158 88 9867ft 310kts
18-Jan-19 19:21 35.096930 -106.662369 84 8706ft 289kts
18-Jan-19 19:22 35.102983 -106.566360 85 7622ft 267kts
18-Jan-19 19:23 35.109260 -106.486284 106 7072ft 199kts
18-Jan-19 19:24 35.069582 -106.464637 205 7678ft 166kts
18-Jan-19 19:25 35.041199 -106.507241 277 6783ft 160kts
18-Jan-19 19:26 35.043875 -106.560382 277 5579ft 149kts
18-Jan-19 19:27 35.044227 -106.598216 270 5323ft 33kts
18-Jan-19 19:28 35.044978 -106.602371 299 5322ft 8kts
18-Jan-19 19:29 35.045735 -106.604242 281 5323ft 4kts
18-Jan-19 19:30 35.045782 -106.606576 270 5321ft 9kts
18-Jan-19 19:31 35.045818 -106.609815 272 5319ft 9kts
18-Jan-19 19:32 35.045822 -106.612223 270 5319ft 6kts
18-Jan-19 19:33 35.046222 -106.614992 331 5316ft 5kts
18-Jan-19 19:34 35.046777 -106.614947 12 5316ft 0kts
18-Jan-19 19:35 35.046777 -106.614947 12 5316ft 0kts
18-Jan-19 19:36 35.046777 -106.614947 12 5316ft 0kts
18-Jan-19 19:37 35.046777 -106.614947 12 5316ft 0kts
18-Jan-19 19:38 35.046777 -106.614947 12 5316ft 0kts

Navigation Log

Ident Type
Flight plan parsing failed, navigation log unavailable